createdAt,value
2016-05-22T00:00:25.188Z,1002.62
2016-05-22T00:01:25.190Z,1002.68
2016-05-22T00:02:25.162Z,1002.69
2016-05-22T00:03:25.165Z,1002.64
2016-05-22T00:04:25.151Z,1002.61
2016-05-22T00:05:25.138Z,1002.54
2016-05-22T00:06:25.126Z,1002.54
2016-05-22T00:07:25.128Z,1002.43
2016-05-22T00:08:25.116Z,1002.42
2016-05-22T00:09:25.103Z,1002.46
2016-05-22T00:10:25.105Z,1002.44
2016-05-22T00:11:25.077Z,1002.39
2016-05-22T00:12:25.079Z,1002.36
2016-05-22T00:13:25.081Z,1002.37
2016-05-22T00:14:25.429Z,1002.34
2016-05-22T00:15:25.040Z,1002.41
2016-05-22T00:16:25.028Z,1002.33
2016-05-22T00:17:25.014Z,1002.33
2016-05-22T00:18:25.002Z,1002.29
2016-05-22T00:19:24.989Z,1002.24
2016-05-22T00:20:24.991Z,1002.2
2016-05-22T00:21:24.978Z,1002.13
2016-05-22T00:22:24.966Z,1002.17
2016-05-22T00:23:24.952Z,1002.15
2016-05-22T00:24:24.956Z,1002.11
2016-05-22T00:25:24.942Z,1002.17
2016-05-22T00:26:24.929Z,1002.09
2016-05-22T00:27:24.917Z,1002.09
2016-05-22T00:28:24.904Z,1002.1
2016-05-22T00:29:24.891Z,1002.03
2016-05-22T00:30:24.877Z,1001.99
2016-05-22T00:31:24.880Z,1001.92
2016-05-22T00:32:24.868Z,1001.86
2016-05-22T00:33:24.854Z,1001.85
2016-05-22T00:34:24.841Z,1001.83
2016-05-22T00:35:24.829Z,1001.79
2016-05-22T00:36:24.816Z,1001.71
2016-05-22T00:37:24.803Z,1001.76
2016-05-22T00:38:24.806Z,1001.75
2016-05-22T00:39:24.793Z,1001.76
2016-05-22T00:40:24.779Z,1001.73
2016-05-22T00:41:24.782Z,1001.73
2016-05-22T00:42:25.160Z,1001.69
2016-05-22T00:43:24.740Z,1001.66
2016-05-22T00:44:24.744Z,1001.67
2016-05-22T00:45:24.715Z,1001.69
2016-05-22T00:46:24.717Z,1001.72
2016-05-22T00:47:24.706Z,1001.68
2016-05-22T00:48:24.692Z,1001.7
2016-05-22T00:49:24.678Z,1001.71
2016-05-22T00:50:24.666Z,1001.73
2016-05-22T00:51:24.653Z,1001.68
2016-05-22T00:52:24.656Z,1001.68
2016-05-22T00:53:24.642Z,1001.66
2016-05-22T00:54:24.630Z,1001.7
2016-05-22T00:55:24.617Z,1001.62
2016-05-22T00:56:24.604Z,1001.66
2016-05-22T00:57:24.591Z,1001.67
2016-05-22T00:58:24.578Z,1001.67
2016-05-22T00:59:24.566Z,1001.63
2016-05-22T01:00:24.568Z,1001.62
2016-05-22T01:01:24.555Z,1001.63
2016-05-22T01:02:24.541Z,1001.57
2016-05-22T01:03:24.529Z,1001.6
2016-05-22T01:04:24.516Z,1001.59
2016-05-22T01:05:24.503Z,1001.59
2016-05-22T01:06:24.506Z,1001.59
2016-05-22T01:07:24.493Z,1001.55
2016-05-22T01:08:24.480Z,1001.56
2016-05-22T01:09:24.467Z,1001.53
2016-05-22T01:10:24.454Z,1001.49
2016-05-22T01:11:24.441Z,1001.56
2016-05-22T01:12:24.428Z,1001.54
2016-05-22T01:13:24.415Z,1001.51
2016-05-22T01:14:24.403Z,1001.54
2016-05-22T01:15:24.405Z,1001.54
2016-05-22T01:16:24.393Z,1001.56
2016-05-22T01:17:24.379Z,1001.57
2016-05-22T01:18:24.366Z,1001.55
2016-05-22T01:19:24.353Z,1001.55
2016-05-22T01:20:24.340Z,1001.52
2016-05-22T01:21:24.328Z,1001.58
2016-05-22T01:22:24.331Z,1001.55
2016-05-22T01:23:24.317Z,1001.54
2016-05-22T01:24:24.305Z,1001.56
2016-05-22T01:25:24.291Z,1001.54
2016-05-22T01:26:24.278Z,1001.53
2016-05-22T01:27:24.266Z,1001.55
2016-05-22T01:28:24.252Z,1001.56
2016-05-22T01:29:24.239Z,1001.52
2016-05-22T01:30:24.226Z,1001.53
2016-05-22T01:31:24.213Z,1001.52
2016-05-22T01:32:24.201Z,1001.54
2016-05-22T01:33:24.204Z,1001.51
2016-05-22T01:34:24.190Z,1001.49
2016-05-22T01:35:24.177Z,1001.48
2016-05-22T01:36:24.165Z,1001.49
2016-05-22T01:37:24.152Z,1001.53
2016-05-22T01:38:24.138Z,1001.5
2016-05-22T01:39:24.126Z,1001.52
2016-05-22T01:40:24.112Z,1001.54
2016-05-22T01:41:24.101Z,1001.54
2016-05-22T01:42:24.509Z,1001.52
2016-05-22T01:43:24.074Z,1001.54
2016-05-22T01:44:24.061Z,1001.49
2016-05-22T01:45:24.064Z,1001.49
2016-05-22T01:46:24.051Z,1001.46
2016-05-22T01:47:24.038Z,1001.44
2016-05-22T01:48:24.025Z,1001.46
2016-05-22T01:49:24.012Z,1001.42
2016-05-22T01:50:24.000Z,1001.42
2016-05-22T01:51:23.986Z,1001.43
2016-05-22T01:52:23.973Z,1001.44
2016-05-22T01:53:23.960Z,1001.47
2016-05-22T01:54:23.948Z,1001.4
2016-05-22T01:55:23.934Z,1001.42
2016-05-22T01:56:23.922Z,1001.45
2016-05-22T01:57:23.908Z,1001.36
2016-05-22T01:58:23.911Z,1001.39
2016-05-22T01:59:23.899Z,1001.37
2016-05-22T02:00:23.886Z,1001.32
2016-05-22T02:01:23.872Z,1001.28
2016-05-22T02:02:23.860Z,1001.28
2016-05-22T02:03:23.846Z,1001.29
2016-05-22T02:04:23.834Z,1001.29
2016-05-22T02:05:23.821Z,1001.27
2016-05-22T02:06:23.807Z,1001.26
2016-05-22T02:07:23.796Z,1001.24
2016-05-22T02:08:23.782Z,1001.23
2016-05-22T02:09:23.769Z,1001.22
2016-05-22T02:10:23.771Z,1001.17
2016-05-22T02:11:23.743Z,1001.19
2016-05-22T02:12:23.746Z,1001.13
2016-05-22T02:13:23.733Z,1001.13
2016-05-22T02:14:23.720Z,1001.12
2016-05-22T02:15:23.707Z,1001.11
2016-05-22T02:16:23.695Z,1001.08
2016-05-22T02:17:23.681Z,1001.07
2016-05-22T02:18:23.668Z,1001.07
2016-05-22T02:19:23.656Z,1001.07
2016-05-22T02:20:23.643Z,1001.09
2016-05-22T02:21:23.629Z,1001.08
2016-05-22T02:22:23.617Z,1001.06
2016-05-22T02:23:23.603Z,1001.07
2016-05-22T02:24:23.591Z,1001.07
2016-05-22T02:25:23.578Z,1001.08
2016-05-22T02:26:23.565Z,1001.04
2016-05-22T02:27:23.786Z,1001.03
2016-05-22T02:28:23.555Z,1000.97
2016-05-22T02:29:23.526Z,1000.95
2016-05-22T02:30:23.528Z,1000.93
2016-05-22T02:31:23.516Z,1000.89
2016-05-22T02:32:23.503Z,1000.92
2016-05-22T02:33:23.491Z,1000.91
2016-05-22T02:34:23.477Z,1000.88
2016-05-22T02:35:23.464Z,1000.85
2016-05-22T02:36:23.451Z,1000.87
2016-05-22T02:37:23.438Z,1000.84
2016-05-22T02:38:23.425Z,1000.82
2016-05-22T02:39:23.413Z,1000.79
2016-05-22T02:40:23.399Z,1000.79
2016-05-22T02:41:23.387Z,1000.77
2016-05-22T02:42:23.421Z,1000.74
2016-05-22T02:43:23.360Z,1000.74
2016-05-22T02:44:23.347Z,1000.73
2016-05-22T02:45:23.351Z,1000.75
2016-05-22T02:46:23.337Z,1000.79
2016-05-22T02:47:23.324Z,1000.78
2016-05-22T02:48:23.312Z,1000.8
2016-05-22T02:49:23.298Z,1000.77
2016-05-22T02:50:23.286Z,1000.81
2016-05-22T02:51:23.273Z,1000.81
2016-05-22T02:52:23.259Z,1000.8
2016-05-22T02:53:23.247Z,1000.78
2016-05-22T02:54:23.234Z,1000.79
2016-05-22T02:55:23.220Z,1000.74
2016-05-22T02:56:23.223Z,1000.74
2016-05-22T02:57:23.398Z,1000.76
2016-05-22T02:58:23.182Z,1000.77
2016-05-22T02:59:23.169Z,1000.76
2016-05-22T03:00:23.156Z,1000.75
2016-05-22T03:01:23.159Z,1000.73
2016-05-22T03:02:23.130Z,1000.66
2016-05-22T03:03:23.116Z,1000.65
2016-05-22T03:04:23.120Z,1000.66
2016-05-22T03:05:23.107Z,1000.64
2016-05-22T03:06:23.094Z,1000.6
2016-05-22T03:07:23.082Z,1000.66
2016-05-22T03:08:23.069Z,1000.66
2016-05-22T03:09:23.055Z,1000.62
2016-05-22T03:10:23.042Z,1000.63
2016-05-22T03:11:23.029Z,1000.62
2016-05-22T03:12:23.016Z,1000.61
2016-05-22T03:13:23.004Z,1000.61
2016-05-22T03:14:23.006Z,1000.59
2016-05-22T03:15:22.993Z,1000.59
2016-05-22T03:16:22.965Z,1000.59
2016-05-22T03:17:22.951Z,1000.62
2016-05-22T03:18:22.940Z,1000.59
2016-05-22T03:19:22.942Z,1000.59
2016-05-22T03:20:22.913Z,1000.58
2016-05-22T03:21:22.915Z,1000.55
2016-05-22T03:22:22.903Z,1000.58
2016-05-22T03:23:22.890Z,1000.52
2016-05-22T03:24:22.877Z,1000.49
2016-05-22T03:25:22.864Z,1000.51
2016-05-22T03:26:22.851Z,1000.46
2016-05-22T03:27:22.885Z,1000.49
2016-05-22T03:28:22.825Z,1000.45
2016-05-22T03:29:22.828Z,1000.44
2016-05-22T03:30:22.848Z,1000.44
2016-05-22T03:31:22.866Z,1000.43
2016-05-22T03:32:22.886Z,1000.41
2016-05-22T03:33:22.904Z,1000.4
2016-05-22T03:34:22.911Z,1000.38
2016-05-22T03:35:22.910Z,1000.38
2016-05-22T03:36:22.907Z,1000.39
2016-05-22T03:37:22.906Z,1000.36
2016-05-22T03:38:22.919Z,1000.32
2016-05-22T03:39:22.915Z,1000.34
2016-05-22T03:40:22.905Z,1000.33
2016-05-22T03:41:22.897Z,1000.31
2016-05-22T03:42:23.340Z,1000.32
2016-05-22T03:43:22.879Z,1000.34
2016-05-22T03:44:22.869Z,1000.3
2016-05-22T03:45:22.858Z,1000.29
2016-05-22T03:46:22.846Z,1000.24
2016-05-22T03:47:22.835Z,1000.26
2016-05-22T03:48:22.824Z,1000.24
2016-05-22T03:49:22.811Z,1000.22
2016-05-22T03:50:22.799Z,1000.22
2016-05-22T03:51:22.786Z,1000.17
2016-05-22T03:52:22.789Z,1000.23
2016-05-22T03:53:22.777Z,1000.18
2016-05-22T03:54:22.764Z,1000.18
2016-05-22T03:55:22.751Z,1000.15
2016-05-22T03:56:22.738Z,1000.13
2016-05-22T03:57:22.725Z,1000.1
2016-05-22T03:58:22.712Z,1000.06
2016-05-22T03:59:22.699Z,1000
2016-05-22T04:00:22.686Z,999.91
2016-05-22T04:01:22.674Z,999.93
2016-05-22T04:02:22.660Z,999.88
2016-05-22T04:03:22.647Z,999.86
2016-05-22T04:04:22.634Z,999.88
2016-05-22T04:05:22.637Z,999.9
2016-05-22T04:06:22.625Z,999.92
2016-05-22T04:07:22.612Z,999.88
2016-05-22T04:08:22.598Z,999.88
2016-05-22T04:09:22.585Z,999.88
2016-05-22T04:10:22.573Z,999.86
2016-05-22T04:11:22.560Z,999.88
2016-05-22T04:12:22.891Z,999.86
2016-05-22T04:13:22.534Z,999.87
2016-05-22T04:14:22.520Z,999.88
2016-05-22T04:15:22.523Z,999.81
2016-05-22T04:16:22.495Z,999.79
2016-05-22T04:17:22.498Z,999.74
2016-05-22T04:18:22.485Z,999.76
2016-05-22T04:19:22.473Z,999.73
2016-05-22T04:20:22.458Z,999.7
2016-05-22T04:21:22.446Z,999.7
2016-05-22T04:22:22.433Z,999.68
2016-05-22T04:23:22.436Z,999.6
2016-05-22T04:24:22.408Z,999.63
2016-05-22T04:25:22.411Z,999.54
2016-05-22T04:26:22.397Z,999.5
2016-05-22T04:27:22.384Z,999.52
2016-05-22T04:28:22.372Z,999.52
2016-05-22T04:29:22.358Z,999.51
2016-05-22T04:30:22.345Z,999.49
2016-05-22T04:31:22.332Z,999.45
2016-05-22T04:32:22.335Z,999.49
2016-05-22T04:33:22.322Z,999.47
2016-05-22T04:34:22.309Z,999.49
2016-05-22T04:35:22.296Z,999.43
2016-05-22T04:36:22.283Z,999.49
2016-05-22T04:37:22.271Z,999.48
2016-05-22T04:38:22.257Z,999.44
2016-05-22T04:39:22.244Z,999.44
2016-05-22T04:40:22.231Z,999.44
2016-05-22T04:41:22.218Z,999.42
2016-05-22T04:42:22.206Z,999.36
2016-05-22T04:43:22.193Z,999.37
2016-05-22T04:44:22.179Z,999.36
2016-05-22T04:45:22.182Z,999.33
2016-05-22T04:46:22.170Z,999.33
2016-05-22T04:47:22.156Z,999.29
2016-05-22T04:48:22.140Z,999.25
2016-05-22T04:49:22.128Z,999.25
2016-05-22T04:50:22.131Z,999.22
2016-05-22T04:51:22.103Z,999.23
2016-05-22T04:52:22.089Z,999.2
2016-05-22T04:53:22.092Z,999.18
2016-05-22T04:54:22.078Z,999.19
2016-05-22T04:55:22.066Z,999.14
2016-05-22T04:56:22.053Z,999.15
2016-05-22T04:57:22.258Z,999.11
2016-05-22T04:58:22.027Z,999.1
2016-05-22T04:59:22.014Z,999.11
2016-05-22T05:00:22.002Z,999.13
2016-05-22T05:01:22.004Z,999.09
2016-05-22T05:02:21.991Z,999.08
2016-05-22T05:03:21.977Z,999.09
2016-05-22T05:04:21.965Z,999.04
2016-05-22T05:05:21.952Z,999.01
2016-05-22T05:06:21.939Z,999.02
2016-05-22T05:07:21.941Z,998.99
2016-05-22T05:08:21.929Z,998.95
2016-05-22T05:09:21.916Z,998.93
2016-05-22T05:10:21.903Z,998.93
2016-05-22T05:11:21.891Z,998.94
2016-05-22T05:12:21.877Z,998.93
2016-05-22T05:13:21.864Z,998.96
2016-05-22T05:14:21.867Z,998.99
2016-05-22T05:15:21.854Z,999
2016-05-22T05:16:21.840Z,999
2016-05-22T05:17:21.829Z,999.05
2016-05-22T05:18:21.815Z,999.07
2016-05-22T05:19:21.802Z,999.1
2016-05-22T05:20:21.805Z,999.12
2016-05-22T05:21:21.808Z,999.15
2016-05-22T05:22:21.779Z,999.18
2016-05-22T05:23:21.767Z,999.21
2016-05-22T05:24:21.754Z,999.24
2016-05-22T05:25:21.755Z,999.28
2016-05-22T05:26:21.742Z,999.3
2016-05-22T05:27:21.731Z,999.31
2016-05-22T05:28:21.717Z,999.29
2016-05-22T05:29:21.705Z,999.3
2016-05-22T05:30:21.692Z,999.25
2016-05-22T05:31:21.678Z,999.24
2016-05-22T05:32:21.680Z,999.27
2016-05-22T05:33:21.669Z,999.23
2016-05-22T05:34:21.655Z,999.19
2016-05-22T05:35:21.642Z,999.11
2016-05-22T05:36:21.630Z,999.12
2016-05-22T05:37:21.617Z,999.05
2016-05-22T05:38:21.619Z,999
2016-05-22T05:39:21.607Z,998.99
2016-05-22T05:40:21.593Z,998.97
2016-05-22T05:41:21.580Z,998.92
2016-05-22T05:42:21.583Z,998.88
2016-05-22T05:43:21.555Z,998.9
2016-05-22T05:44:21.557Z,998.87
2016-05-22T05:45:21.543Z,998.88
2016-05-22T05:46:21.546Z,998.84
2016-05-22T05:47:21.534Z,998.89
2016-05-22T05:48:21.520Z,998.85
2016-05-22T05:49:21.509Z,998.8
2016-05-22T05:50:21.495Z,998.77
2016-05-22T05:51:21.482Z,998.83
2016-05-22T05:52:21.469Z,998.79
2016-05-22T05:53:21.457Z,998.79
2016-05-22T05:54:21.459Z,998.8
2016-05-22T05:55:21.446Z,998.81
2016-05-22T05:56:21.433Z,998.8
2016-05-22T05:57:21.420Z,998.79
2016-05-22T05:58:21.423Z,998.83
2016-05-22T05:59:21.410Z,998.84
2016-05-22T06:00:21.397Z,998.85
2016-05-22T06:01:21.384Z,998.85
2016-05-22T06:02:21.371Z,998.85
2016-05-22T06:03:21.358Z,998.81
2016-05-22T06:04:21.360Z,998.8
2016-05-22T06:05:21.348Z,998.75
2016-05-22T06:06:21.335Z,998.78
2016-05-22T06:07:21.322Z,998.78
2016-05-22T06:08:21.325Z,998.79
2016-05-22T06:09:21.312Z,998.82
2016-05-22T06:10:21.299Z,998.8
2016-05-22T06:11:21.286Z,998.78
2016-05-22T06:12:21.273Z,998.79
2016-05-22T06:13:21.276Z,998.89
2016-05-22T06:14:21.263Z,998.78
2016-05-22T06:15:21.250Z,998.72
2016-05-22T06:16:21.237Z,998.71
2016-05-22T06:17:21.240Z,998.74
2016-05-22T06:18:21.227Z,998.76
2016-05-22T06:19:21.215Z,998.75
2016-05-22T06:20:21.201Z,998.75
2016-05-22T06:21:21.187Z,998.72
2016-05-22T06:22:21.190Z,998.75
2016-05-22T06:23:21.178Z,998.74
2016-05-22T06:24:21.165Z,998.67
2016-05-22T06:25:21.152Z,998.73
2016-05-22T06:26:21.139Z,998.74
2016-05-22T06:27:21.141Z,998.65
2016-05-22T06:28:21.129Z,998.7
2016-05-22T06:29:21.116Z,998.75
2016-05-22T06:30:21.103Z,998.73
2016-05-22T06:31:21.106Z,998.73
2016-05-22T06:32:21.093Z,998.73
2016-05-22T06:33:21.079Z,998.66
2016-05-22T06:34:21.082Z,998.69
2016-05-22T06:35:21.069Z,998.75
2016-05-22T06:36:21.056Z,998.74
2016-05-22T06:37:21.044Z,998.75
2016-05-22T06:38:21.046Z,998.74
2016-05-22T06:39:21.048Z,998.73
2016-05-22T06:40:21.020Z,998.7
2016-05-22T06:41:21.007Z,998.67
2016-05-22T06:42:21.010Z,998.7
2016-05-22T06:43:20.997Z,998.61
2016-05-22T06:44:20.985Z,998.61
2016-05-22T06:45:20.987Z,998.64
2016-05-22T06:46:20.973Z,998.63
2016-05-22T06:47:20.961Z,998.56
2016-05-22T06:48:20.963Z,998.52
2016-05-22T06:49:20.951Z,998.57
2016-05-22T06:50:20.938Z,998.51
2016-05-22T06:51:20.940Z,998.52
2016-05-22T06:52:20.927Z,998.51
2016-05-22T06:53:20.914Z,998.51
2016-05-22T06:54:20.917Z,998.42
2016-05-22T06:55:20.904Z,998.42
2016-05-22T06:56:20.892Z,998.39
2016-05-22T06:57:21.081Z,998.38
2016-05-22T06:58:20.881Z,998.4
2016-05-22T06:59:20.868Z,998.4
2016-05-22T07:00:20.855Z,998.39
2016-05-22T07:01:20.859Z,998.4
2016-05-22T07:02:20.845Z,998.32
2016-05-22T07:03:20.847Z,998.36
2016-05-22T07:04:20.835Z,998.36
2016-05-22T07:05:20.822Z,998.36
2016-05-22T07:06:20.808Z,998.33
2016-05-22T07:07:20.811Z,998.34
2016-05-22T07:08:20.799Z,998.3
2016-05-22T07:09:20.786Z,998.31
2016-05-22T07:10:20.788Z,998.31
2016-05-22T07:11:20.775Z,998.33
2016-05-22T07:12:20.778Z,998.32
2016-05-22T07:13:20.765Z,998.33
2016-05-22T07:14:20.752Z,998.34
2016-05-22T07:15:20.771Z,998.33
2016-05-22T07:16:20.742Z,998.35
2016-05-22T07:17:20.729Z,998.35
2016-05-22T07:18:20.732Z,998.27
2016-05-22T07:19:20.719Z,998.29
2016-05-22T07:20:20.706Z,998.28
2016-05-22T07:21:20.709Z,998.33
2016-05-22T07:22:20.696Z,998.28
2016-05-22T07:23:20.683Z,998.28
2016-05-22T07:24:20.685Z,998.24
2016-05-22T07:25:20.673Z,998.24
2016-05-22T07:26:20.676Z,998.25
2016-05-22T07:27:20.662Z,998.26
2016-05-22T07:28:20.650Z,998.25
2016-05-22T07:29:20.652Z,998.24
2016-05-22T07:30:20.639Z,998.18
2016-05-22T07:31:20.642Z,998.23
2016-05-22T07:32:20.645Z,998.21
2016-05-22T07:33:20.631Z,998.18
2016-05-22T07:34:20.618Z,998.19
2016-05-22T07:35:20.621Z,998.25
2016-05-22T07:36:20.609Z,998.25
2016-05-22T07:37:20.611Z,998.09
2016-05-22T07:38:20.598Z,998.04
2016-05-22T07:39:20.585Z,998.13
2016-05-22T07:40:20.682Z,998.14
2016-05-22T07:41:20.590Z,998.08
2016-05-22T07:42:20.577Z,998.07
2016-05-22T07:43:20.565Z,998.08
2016-05-22T07:44:20.568Z,998.05
2016-05-22T07:45:20.554Z,998.11
2016-05-22T07:46:20.557Z,998.05
2016-05-22T07:47:20.543Z,998.06
2016-05-22T07:48:20.546Z,998.04
2016-05-22T07:49:20.535Z,998.11
2016-05-22T07:50:20.537Z,998.19
2016-05-22T07:51:20.523Z,998.15
2016-05-22T07:52:20.526Z,998.19
2016-05-22T07:53:20.513Z,998.21
2016-05-22T07:54:20.515Z,998.25
2016-05-22T07:55:20.504Z,998.31
2016-05-22T07:56:20.506Z,998.22
2016-05-22T07:57:20.492Z,998.3
2016-05-22T07:58:20.527Z,998.31
2016-05-22T07:59:20.483Z,998.35
2016-05-22T08:00:20.469Z,998.45
2016-05-22T08:01:20.473Z,998.44
2016-05-22T08:02:20.460Z,998.48
2016-05-22T08:03:20.462Z,998.47
2016-05-22T08:04:20.464Z,998.47
2016-05-22T08:05:20.453Z,998.47
2016-05-22T08:06:20.439Z,998.53
2016-05-22T08:07:20.441Z,998.46
2016-05-22T08:08:20.444Z,998.52
2016-05-22T08:09:20.431Z,998.52
2016-05-22T08:10:20.434Z,998.54
2016-05-22T08:11:20.437Z,998.54
2016-05-22T08:12:20.424Z,998.51
2016-05-22T08:13:20.411Z,998.5
2016-05-22T08:14:20.413Z,998.45
2016-05-22T08:15:20.401Z,998.5
2016-05-22T08:16:20.403Z,998.51
2016-05-22T08:17:20.406Z,998.5
2016-05-22T08:18:20.393Z,998.49
2016-05-22T08:19:20.396Z,998.54
2016-05-22T08:20:20.398Z,998.56
2016-05-22T08:21:20.401Z,998.52
2016-05-22T08:22:20.388Z,998.52
2016-05-22T08:23:20.391Z,998.49
2016-05-22T08:24:20.378Z,998.5
2016-05-22T08:25:20.365Z,998.55
2016-05-22T08:26:20.368Z,998.54
2016-05-22T08:27:20.370Z,998.45
2016-05-22T08:28:20.732Z,998.61
2016-05-22T08:29:20.376Z,998.43
2016-05-22T08:30:20.379Z,998.52
2016-05-22T08:31:20.365Z,998.67
2016-05-22T08:32:20.368Z,998.55
2016-05-22T08:33:20.355Z,998.57
2016-05-22T08:34:20.374Z,998.63
2016-05-22T08:35:20.345Z,998.71
2016-05-22T08:36:20.567Z,998.72
2016-05-22T08:37:20.350Z,998.73
2016-05-22T08:38:20.338Z,998.75
2016-05-22T08:39:20.340Z,998.79
2016-05-22T08:40:20.344Z,998.77
2016-05-22T08:41:20.330Z,998.8
2016-05-22T08:42:20.349Z,998.85
2016-05-22T08:43:20.757Z,998.83
2016-05-22T08:44:20.322Z,998.84
2016-05-22T08:45:20.325Z,998.87
2016-05-22T08:46:20.328Z,998.88
2016-05-22T08:47:20.330Z,998.88
2016-05-22T08:48:20.333Z,998.83
2016-05-22T08:49:20.320Z,998.85
2016-05-22T08:50:20.323Z,998.81
2016-05-22T08:51:20.326Z,998.77
2016-05-22T08:52:20.312Z,998.76
2016-05-22T08:53:20.315Z,998.76
2016-05-22T08:54:20.318Z,998.76
2016-05-22T08:55:20.321Z,998.81
2016-05-22T08:56:20.323Z,998.76
2016-05-22T08:57:20.545Z,998.74
2016-05-22T08:58:20.313Z,998.69
2016-05-22T08:59:20.315Z,998.73
2016-05-22T09:00:20.318Z,998.73
2016-05-22T09:01:20.305Z,998.71
2016-05-22T09:02:20.308Z,998.77
2016-05-22T09:03:20.295Z,998.78
2016-05-22T09:04:20.298Z,998.71
2016-05-22T09:05:20.300Z,998.71
2016-05-22T09:06:20.288Z,998.73
2016-05-22T09:07:20.291Z,998.74
2016-05-22T09:08:20.294Z,998.68
2016-05-22T09:09:20.280Z,998.77
2016-05-22T09:10:20.283Z,998.69
2016-05-22T09:11:20.270Z,998.7
2016-05-22T09:12:20.272Z,998.69
2016-05-22T09:13:20.447Z,998.71
2016-05-22T09:14:20.278Z,998.65
2016-05-22T09:15:20.266Z,998.7
2016-05-22T09:16:20.268Z,998.76
2016-05-22T09:17:20.254Z,998.68
2016-05-22T09:18:20.257Z,998.73
2016-05-22T09:19:20.260Z,998.72
2016-05-22T09:20:20.247Z,998.74
2016-05-22T09:21:20.249Z,998.71
2016-05-22T09:22:20.252Z,998.73
2016-05-22T09:23:20.240Z,998.67
2016-05-22T09:24:20.243Z,998.77
2016-05-22T09:25:20.229Z,998.73
2016-05-22T09:26:20.232Z,998.96
2016-05-22T09:27:20.220Z,998.85
2016-05-22T09:28:20.222Z,998.76
2016-05-22T09:29:20.225Z,998.74
2016-05-22T09:30:20.212Z,998.7
2016-05-22T09:31:20.215Z,998.71
2016-05-22T09:32:20.202Z,998.73
2016-05-22T09:33:20.204Z,998.72
2016-05-22T09:34:20.206Z,998.74
2016-05-22T09:35:20.194Z,998.79
2016-05-22T09:36:20.197Z,998.72
2016-05-22T09:37:20.183Z,998.7
2016-05-22T09:38:20.186Z,998.72
2016-05-22T09:39:20.173Z,998.75
2016-05-22T09:40:20.176Z,998.79
2016-05-22T09:41:20.178Z,998.85
2016-05-22T09:42:20.166Z,998.82
2016-05-22T09:43:20.169Z,998.83
2016-05-22T09:44:20.155Z,998.82
2016-05-22T09:45:20.158Z,998.89
2016-05-22T09:46:20.161Z,998.85
2016-05-22T09:47:20.149Z,998.82
2016-05-22T09:48:20.135Z,998.82
2016-05-22T09:49:20.138Z,998.88
2016-05-22T09:50:20.141Z,998.88
2016-05-22T09:51:20.143Z,998.92
2016-05-22T09:52:20.130Z,998.9
2016-05-22T09:53:20.133Z,998.96
2016-05-22T09:54:20.121Z,998.99
2016-05-22T09:55:20.107Z,998.99
2016-05-22T09:56:20.110Z,999.01
2016-05-22T09:57:20.112Z,998.98
2016-05-22T09:58:20.803Z,998.92
2016-05-22T09:59:20.102Z,998.96
2016-05-22T10:00:20.104Z,998.93
2016-05-22T10:01:20.092Z,998.95
2016-05-22T10:02:20.110Z,998.94
2016-05-22T10:03:20.081Z,998.97
2016-05-22T10:04:20.084Z,998.99
2016-05-22T10:05:20.087Z,998.99
2016-05-22T10:06:20.075Z,999
2016-05-22T10:07:20.078Z,999.03
2016-05-22T10:08:20.064Z,999.03
2016-05-22T10:09:20.067Z,999.04
2016-05-22T10:10:20.069Z,999
2016-05-22T10:11:20.056Z,999.01
2016-05-22T10:12:20.059Z,999.07
2016-05-22T10:13:20.046Z,999.01
2016-05-22T10:14:20.049Z,999.08
2016-05-22T10:15:20.036Z,999.06
2016-05-22T10:16:20.038Z,999.05
2016-05-22T10:17:20.026Z,999.03
2016-05-22T10:18:20.027Z,999.03
2016-05-22T10:19:20.031Z,998.98
2016-05-22T10:20:20.018Z,998.96
2016-05-22T10:21:20.021Z,998.87
2016-05-22T10:22:20.008Z,998.74
2016-05-22T10:23:20.010Z,998.79
2016-05-22T10:24:19.998Z,998.79
2016-05-22T10:25:20.001Z,998.82
2016-05-22T10:26:20.003Z,998.9
2016-05-22T10:27:19.990Z,998.98
2016-05-22T10:28:19.993Z,999.05
2016-05-22T10:29:19.979Z,999.02
2016-05-22T10:30:19.982Z,999.08
2016-05-22T10:31:19.984Z,999.07
2016-05-22T10:32:19.973Z,999.1
2016-05-22T10:33:19.960Z,999.15
2016-05-22T10:34:19.962Z,999.17
2016-05-22T10:35:19.949Z,999.24
2016-05-22T10:36:19.952Z,999.22
2016-05-22T10:37:19.954Z,999.22
2016-05-22T10:38:19.942Z,999.23
2016-05-22T10:39:19.928Z,999.29
2016-05-22T10:40:19.931Z,999.38
2016-05-22T10:41:19.919Z,999.32
2016-05-22T10:42:19.922Z,999.41
2016-05-22T10:43:19.924Z,999.37
2016-05-22T10:44:19.911Z,999.46
2016-05-22T10:45:19.913Z,999.67
2016-05-22T10:46:19.901Z,999.5
2016-05-22T10:47:19.902Z,999.48
2016-05-22T10:48:19.890Z,999.47
2016-05-22T10:49:19.893Z,999.55
2016-05-22T10:50:19.880Z,999.57
2016-05-22T10:51:19.883Z,999.54
2016-05-22T10:52:19.869Z,999.54
2016-05-22T10:53:19.872Z,999.59
2016-05-22T10:54:19.875Z,999.56
2016-05-22T10:55:19.863Z,999.59
2016-05-22T10:56:19.866Z,999.58
2016-05-22T10:57:19.851Z,999.65
2016-05-22T10:58:19.854Z,999.83
2016-05-22T10:59:19.857Z,999.79
2016-05-22T11:00:19.860Z,999.66
2016-05-22T11:01:19.863Z,999.76
2016-05-22T11:02:19.850Z,999.74
2016-05-22T11:03:19.853Z,999.78
2016-05-22T11:04:19.856Z,999.84
2016-05-22T11:05:19.859Z,999.75
2016-05-22T11:06:19.861Z,999.68
2016-05-22T11:07:19.847Z,999.75
2016-05-22T11:08:19.850Z,999.69
2016-05-22T11:09:19.853Z,999.68
2016-05-22T11:10:19.839Z,999.68
2016-05-22T11:11:19.843Z,999.78
2016-05-22T11:12:19.845Z,999.79
2016-05-22T11:13:19.833Z,999.83
2016-05-22T11:14:19.835Z,999.96
2016-05-22T11:15:19.838Z,999.87
2016-05-22T11:16:19.825Z,999.95
2016-05-22T11:17:19.828Z,999.82
2016-05-22T11:18:19.830Z,999.79
2016-05-22T11:19:19.817Z,999.85
2016-05-22T11:20:19.819Z,999.83
2016-05-22T11:21:19.822Z,999.84
2016-05-22T11:22:19.810Z,999.83
2016-05-22T11:23:19.813Z,999.87
2016-05-22T11:24:19.816Z,999.87
2016-05-22T11:25:19.802Z,999.86
2016-05-22T11:26:19.805Z,999.82
2016-05-22T11:27:19.808Z,999.87
2016-05-22T11:28:19.795Z,999.82
2016-05-22T11:29:19.798Z,999.87
2016-05-22T11:30:19.800Z,999.92
2016-05-22T11:31:19.787Z,1000.03
2016-05-22T11:32:19.790Z,999.9
2016-05-22T11:33:19.777Z,999.95
2016-05-22T11:34:19.780Z,999.92
2016-05-22T11:35:19.782Z,999.87
2016-05-22T11:36:19.770Z,999.86
2016-05-22T11:37:19.773Z,999.87
2016-05-22T11:38:19.759Z,1000
2016-05-22T11:39:19.762Z,999.85
2016-05-22T11:40:19.764Z,999.89
2016-05-22T11:41:19.751Z,999.91
2016-05-22T11:42:19.754Z,999.9
2016-05-22T11:43:20.117Z,999.86
2016-05-22T11:44:19.744Z,999.91
2016-05-22T11:45:19.731Z,999.85
2016-05-22T11:46:19.750Z,999.93
2016-05-22T11:47:19.737Z,999.86
2016-05-22T11:48:19.724Z,999.87
2016-05-22T11:49:19.726Z,999.87
2016-05-22T11:50:19.714Z,999.93
2016-05-22T11:51:19.716Z,999.84
2016-05-22T11:52:19.719Z,999.94
2016-05-22T11:53:19.706Z,999.88
2016-05-22T11:54:19.724Z,999.8
2016-05-22T11:55:19.711Z,999.76
2016-05-22T11:56:19.699Z,999.77
2016-05-22T11:57:19.701Z,999.75
2016-05-22T11:58:19.735Z,999.77
2016-05-22T11:59:19.706Z,999.76
2016-05-22T12:00:19.693Z,999.65
2016-05-22T12:01:19.696Z,999.66
2016-05-22T12:02:19.699Z,999.59
2016-05-22T12:03:19.702Z,999.64
2016-05-22T12:04:19.704Z,999.6
2016-05-22T12:05:19.707Z,999.57
2016-05-22T12:06:19.709Z,999.58
2016-05-22T12:07:19.696Z,999.58
2016-05-22T12:08:19.699Z,999.56
2016-05-22T12:09:19.701Z,999.61
2016-05-22T12:10:19.689Z,999.6
2016-05-22T12:11:19.692Z,999.61
2016-05-22T12:12:19.695Z,999.62
2016-05-22T12:13:19.698Z,999.59
2016-05-22T12:14:19.683Z,999.6
2016-05-22T12:15:19.687Z,999.59
2016-05-22T12:16:19.689Z,999.58
2016-05-22T12:17:19.677Z,999.57
2016-05-22T12:18:19.680Z,999.61
2016-05-22T12:19:19.682Z,999.57
2016-05-22T12:20:19.669Z,999.58
2016-05-22T12:21:19.671Z,999.56
2016-05-22T12:22:19.674Z,999.6
2016-05-22T12:23:19.661Z,999.61